Pagrindinis puslapis
METAR-TAF:

METAR-TAF

Oro uostai :

Ciudad Real, Ispanija

platuma: 38-51-17N, ilguma: 3-58-08W, Aukštis: 636 m

Dabartinis oras

Ataskaita buvo paskelbta 11 valandos ir 17 minutes, ne 17:00 UTC
Vėjas 6 kt iš Vakarų, svyruoja nuo Vakarų/Pietvakarių ir Šiaurės Vakarų
Temperatūra 21°C
Drėgmė 33%
Slėgis 1013 hPa
Matomumas 10 km arba daugiau
Mažai debesys ne aukštis 6000 ft, Liūtiniai kamuoliniai debesys.
Liūtis kaimynystėje,

METAR: LERL 211700Z 28006KT 250V320 9999 VCSH FEW060CB 21/04 Q1013

Laikas: 06:17 (04:17 UTC)

Prognozė

Ataskaita buvo paskelbta 2 valandos ir 17 minutes, ne 02:00 UTC
Prognozė galioja nuo 22 metu 03 UTC su 23 metu 03 UTC
Vėjas 6 kt iš Vakarų
Matomumas 10 km arba daugiau
Mažai debesys ne aukštis 4500 ft
Tapsmas
nuo 22 metu 06 UTC su 22 metu 08 UTC
Vėjas 10 kt iš Šiaurės/Šiaurės Rytų

TAF: LERL 220200Z 2203/2303 26006KT 9999 FEW045 TX22/2215Z TN06/2205Z BECMG 2206/2208 02010KT

Orai ataskaitas ir orų prognozės (METAR, TAF).

turimą stotys yra geltonos ir raudonos taškus žemėlapyje.

Perkelti pele per norėdami pamatyti stoties vardą.

Tada spustelėkite, norėdami matyti oro stebėjimo ir prognozės.

Norėdami pakeisti žemėlapį: spustelėkite ant žalios mygtukų su juodo kryžiaus žemyn,; žalią mygtuką su brūkšneliu, jei norite nutolinti; arba žalių rodyklių gretimoms žemėlapius.


METAR-TAF: